sensor_id;sensor_type;location;lat;lon;timestamp;P1;durP1;ratioP1;P2;durP2;ratioP2
27003;SDS011;14546;47.590;19.022;2022-11-15T00:01:39;52.08;;;33.55;;
27003;SDS011;14546;47.590;19.022;2022-11-15T00:04:05;48.47;;;31.45;;
27003;SDS011;14546;47.590;19.022;2022-11-15T00:06:32;44.05;;;31.00;;
27003;SDS011;14546;47.590;19.022;2022-11-15T00:08:58;48.38;;;30.00;;
27003;SDS011;14546;47.590;19.022;2022-11-15T00:11:24;81.38;;;34.28;;
27003;SDS011;14546;47.590;19.022;2022-11-15T00:13:51;51.88;;;32.15;;
27003;SDS011;14546;47.590;19.022;2022-11-15T00:16:17;48.65;;;32.50;;
27003;SDS011;14546;47.590;19.022;2022-11-15T00:18:43;57.58;;;35.10;;
27003;SDS011;14546;47.590;19.022;2022-11-15T00:21:10;59.70;;;37.42;;
27003;SDS011;14546;47.590;19.022;2022-11-15T00:23:36;60.55;;;36.58;;
27003;SDS011;14546;47.590;19.022;2022-11-15T00:26:02;53.53;;;34.65;;
27003;SDS011;14546;47.590;19.022;2022-11-15T00:28:28;56.90;;;36.28;;
27003;SDS011;14546;47.590;19.022;2022-11-15T00:30:59;60.00;;;35.67;;
27003;SDS011;14546;47.590;19.022;2022-11-15T00:33:25;58.97;;;35.88;;
27003;SDS011;14546;47.590;19.022;2022-11-15T00:35:51;60.60;;;35.13;;
27003;SDS011;14546;47.590;19.022;2022-11-15T00:38:17;58.35;;;36.13;;
27003;SDS011;14546;47.590;19.022;2022-11-15T00:40:44;60.03;;;36.78;;
27003;SDS011;14546;47.590;19.022;2022-11-15T00:43:10;69.13;;;35.53;;
27003;SDS011;14546;47.590;19.022;2022-11-15T00:45:36;113.30;;;36.20;;
27003;SDS011;14546;47.590;19.022;2022-11-15T00:48:02;57.58;;;36.40;;
27003;SDS011;14546;47.590;19.022;2022-11-15T00:50:28;64.00;;;37.78;;
27003;SDS011;14546;47.590;19.022;2022-11-15T00:52:54;48.30;;;32.72;;
27003;SDS011;14546;47.590;19.022;2022-11-15T00:55:20;49.50;;;32.88;;
27003;SDS011;14546;47.590;19.022;2022-11-15T00:57:46;55.20;;;34.13;;
27003;SDS011;14546;47.590;19.022;2022-11-15T01:00:12;53.53;;;34.30;;
27003;SDS011;14546;47.590;19.022;2022-11-15T01:02:38;58.30;;;35.08;;
27003;SDS011;14546;47.590;19.022;2022-11-15T01:05:05;54.38;;;35.47;;
27003;SDS011;14546;47.590;19.022;2022-11-15T01:07:31;54.85;;;35.33;;
27003;SDS011;14546;47.590;19.022;2022-11-15T01:09:57;53.28;;;34.55;;
27003;SDS011;14546;47.590;19.022;2022-11-15T01:12:23;51.58;;;32.88;;
27003;SDS011;14546;47.590;19.022;2022-11-15T01:14:49;53.63;;;33.70;;
27003;SDS011;14546;47.590;19.022;2022-11-15T01:17:15;114.03;;;35.90;;
27003;SDS011;14546;47.590;19.022;2022-11-15T01:19:41;81.60;;;33.55;;
27003;SDS011;14546;47.590;19.022;2022-11-15T01:22:07;116.63;;;37.17;;
27003;SDS011;14546;47.590;19.022;2022-11-15T01:24:33;62.35;;;36.25;;
27003;SDS011;14546;47.590;19.022;2022-11-15T01:26:59;56.58;;;35.28;;
27003;SDS011;14546;47.590;19.022;2022-11-15T01:29:25;109.15;;;38.05;;
27003;SDS011;14546;47.590;19.022;2022-11-15T01:31:52;73.55;;;39.05;;
27003;SDS011;14546;47.590;19.022;2022-11-15T01:34:18;63.40;;;39.25;;
27003;SDS011;14546;47.590;19.022;2022-11-15T01:36:44;57.33;;;36.80;;
27003;SDS011;14546;47.590;19.022;2022-11-15T01:39:10;63.05;;;40.17;;
27003;SDS011;14546;47.590;19.022;2022-11-15T01:41:36;60.22;;;35.60;;
27003;SDS011;14546;47.590;19.022;2022-11-15T01:46:47;59.60;;;35.17;;
27003;SDS011;14546;47.590;19.022;2022-11-15T01:49:17;56.08;;;35.42;;
27003;SDS011;14546;47.590;19.022;2022-11-15T01:51:44;55.78;;;33.47;;
27003;SDS011;14546;47.590;19.022;2022-11-15T01:54:10;45.28;;;31.05;;
27003;SDS011;14546;47.590;19.022;2022-11-15T01:56:41;43.42;;;28.10;;
27003;SDS011;14546;47.590;19.022;2022-11-15T01:59:09;38.45;;;24.42;;
27003;SDS011;14546;47.590;19.022;2022-11-15T02:01:36;37.00;;;22.83;;
27003;SDS011;14546;47.590;19.022;2022-11-15T02:06:34;35.53;;;21.35;;
27003;SDS011;14546;47.590;19.022;2022-11-15T02:09:01;32.17;;;20.92;;
27003;SDS011;14546;47.590;19.022;2022-11-15T02:11:27;33.60;;;20.55;;
27003;SDS011;14546;47.590;19.022;2022-11-15T02:13:54;36.08;;;20.98;;
27003;SDS011;14546;47.590;19.022;2022-11-15T02:21:48;28.17;;;18.75;;
27003;SDS011;14546;47.590;19.022;2022-11-15T02:24:24;27.30;;;18.00;;
27003;SDS011;14546;47.590;19.022;2022-11-15T02:32:11;35.17;;;23.02;;
27003;SDS011;14546;47.590;19.022;2022-11-15T02:39:57;50.10;;;32.95;;
27003;SDS011;14546;47.590;19.022;2022-11-15T02:42:20;46.53;;;30.45;;
27003;SDS011;14546;47.590;19.022;2022-11-15T02:45:06;42.72;;;29.33;;
27003;SDS011;14546;47.590;19.022;2022-11-15T02:47:34;40.38;;;28.42;;
27003;SDS011;14546;47.590;19.022;2022-11-15T02:50:12;46.10;;;30.88;;
27003;SDS011;14546;47.590;19.022;2022-11-15T02:52:39;41.88;;;27.00;;
27003;SDS011;14546;47.590;19.022;2022-11-15T02:55:25;42.08;;;24.25;;
27003;SDS011;14546;47.590;19.022;2022-11-15T02:57:52;44.85;;;28.90;;
27003;SDS011;14546;47.590;19.022;2022-11-15T03:00:19;41.03;;;27.70;;
27003;SDS011;14546;47.590;19.022;2022-11-15T03:05:53;48.50;;;31.90;;
27003;SDS011;14546;47.590;19.022;2022-11-15T03:11:13;47.67;;;30.73;;
27003;SDS011;14546;47.590;19.022;2022-11-15T03:13:43;37.85;;;24.90;;
27003;SDS011;14546;47.590;19.022;2022-11-15T03:16:15;37.67;;;24.42;;
27003;SDS011;14546;47.590;19.022;2022-11-15T03:18:44;39.53;;;24.90;;
27003;SDS011;14546;47.590;19.022;2022-11-15T03:21:11;35.83;;;22.75;;
27003;SDS011;14546;47.590;19.022;2022-11-15T03:23:39;38.22;;;24.38;;
27003;SDS011;14546;47.590;19.022;2022-11-15T03:26:07;43.00;;;26.00;;
27003;SDS011;14546;47.590;19.022;2022-11-15T03:28:37;45.28;;;25.25;;
27003;SDS011;14546;47.590;19.022;2022-11-15T03:31:04;40.08;;;25.25;;
27003;SDS011;14546;47.590;19.022;2022-11-15T03:33:51;40.20;;;24.00;;
27003;SDS011;14546;47.590;19.022;2022-11-15T03:36:19;38.00;;;24.67;;
27003;SDS011;14546;47.590;19.022;2022-11-15T03:38:46;39.00;;;24.60;;
27003;SDS011;14546;47.590;19.022;2022-11-15T03:41:17;36.30;;;23.80;;
27003;SDS011;14546;47.590;19.022;2022-11-15T03:46:28;41.00;;;23.55;;
27003;SDS011;14546;47.590;19.022;2022-11-15T03:48:59;34.53;;;23.25;;
27003;SDS011;14546;47.590;19.022;2022-11-15T03:51:26;40.80;;;25.08;;
27003;SDS011;14546;47.590;19.022;2022-11-15T03:53:52;35.92;;;23.80;;
27003;SDS011;14546;47.590;19.022;2022-11-15T03:56:18;37.70;;;24.45;;
27003;SDS011;14546;47.590;19.022;2022-11-15T03:58:45;41.88;;;24.58;;
27003;SDS011;14546;47.590;19.022;2022-11-15T04:01:11;41.20;;;24.25;;
27003;SDS011;14546;47.590;19.022;2022-11-15T04:03:37;39.53;;;25.90;;
27003;SDS011;14546;47.590;19.022;2022-11-15T04:06:03;38.67;;;24.67;;
27003;SDS011;14546;47.590;19.022;2022-11-15T04:08:29;38.22;;;25.50;;
27003;SDS011;14546;47.590;19.022;2022-11-15T04:10:55;39.78;;;25.45;;
27003;SDS011;14546;47.590;19.022;2022-11-15T04:13:20;36.00;;;24.42;;
27003;SDS011;14546;47.590;19.022;2022-11-15T04:15:46;37.72;;;24.85;;
27003;SDS011;14546;47.590;19.022;2022-11-15T04:18:12;37.58;;;24.00;;
27003;SDS011;14546;47.590;19.022;2022-11-15T04:20:38;39.25;;;26.52;;
27003;SDS011;14546;47.590;19.022;2022-11-15T04:23:23;44.80;;;28.27;;
27003;SDS011;14546;47.590;19.022;2022-11-15T04:26:09;41.05;;;26.38;;
27003;SDS011;14546;47.590;19.022;2022-11-15T04:28:35;43.28;;;28.25;;
27003;SDS011;14546;47.590;19.022;2022-11-15T04:31:25;44.65;;;28.35;;
27003;SDS011;14546;47.590;19.022;2022-11-15T04:33:51;48.97;;;29.30;;
27003;SDS011;14546;47.590;19.022;2022-11-15T04:36:17;48.30;;;31.48;;
27003;SDS011;14546;47.590;19.022;2022-11-15T04:39:02;51.65;;;31.80;;
27003;SDS011;14546;47.590;19.022;2022-11-15T04:41:28;49.88;;;30.38;;
27003;SDS011;14546;47.590;19.022;2022-11-15T04:43:54;47.80;;;29.88;;
27003;SDS011;14546;47.590;19.022;2022-11-15T04:46:21;44.40;;;28.83;;
27003;SDS011;14546;47.590;19.022;2022-11-15T04:48:47;50.20;;;30.88;;
27003;SDS011;14546;47.590;19.022;2022-11-15T04:51:13;47.33;;;29.83;;
27003;SDS011;14546;47.590;19.022;2022-11-15T04:53:39;44.15;;;29.38;;
27003;SDS011;14546;47.590;19.022;2022-11-15T04:56:05;43.75;;;29.55;;
27003;SDS011;14546;47.590;19.022;2022-11-15T04:58:31;46.78;;;32.35;;
27003;SDS011;14546;47.590;19.022;2022-11-15T05:00:57;52.38;;;34.72;;
27003;SDS011;14546;47.590;19.022;2022-11-15T05:03:23;51.83;;;33.33;;
27003;SDS011;14546;47.590;19.022;2022-11-15T05:06:07;81.65;;;48.42;;
27003;SDS011;14546;47.590;19.022;2022-11-15T05:08:33;77.18;;;47.13;;
27003;SDS011;14546;47.590;19.022;2022-11-15T05:10:59;57.40;;;36.83;;
27003;SDS011;14546;47.590;19.022;2022-11-15T05:13:25;60.78;;;39.03;;
27003;SDS011;14546;47.590;19.022;2022-11-15T05:15:51;60.35;;;39.22;;
27003;SDS011;14546;47.590;19.022;2022-11-15T05:18:17;55.13;;;34.97;;
27003;SDS011;14546;47.590;19.022;2022-11-15T05:20:43;60.83;;;36.63;;
27003;SDS011;14546;47.590;19.022;2022-11-15T05:23:09;53.97;;;35.33;;
27003;SDS011;14546;47.590;19.022;2022-11-15T05:25:35;57.13;;;35.67;;
27003;SDS011;14546;47.590;19.022;2022-11-15T05:28:02;53.20;;;34.00;;
27003;SDS011;14546;47.590;19.022;2022-11-15T05:30:29;57.60;;;36.15;;
27003;SDS011;14546;47.590;19.022;2022-11-15T05:32:55;50.05;;;33.88;;
27003;SDS011;14546;47.590;19.022;2022-11-15T05:35:25;44.90;;;31.15;;
27003;SDS011;14546;47.590;19.022;2022-11-15T05:37:53;46.00;;;32.10;;
27003;SDS011;14546;47.590;19.022;2022-11-15T05:40:19;48.03;;;33.22;;
27003;SDS011;14546;47.590;19.022;2022-11-15T05:42:45;49.42;;;32.75;;
27003;SDS011;14546;47.590;19.022;2022-11-15T05:45:11;48.95;;;34.00;;
27003;SDS011;14546;47.590;19.022;2022-11-15T05:47:37;52.47;;;33.45;;
27003;SDS011;14546;47.590;19.022;2022-11-15T05:50:04;57.10;;;34.78;;
27003;SDS011;14546;47.590;19.022;2022-11-15T05:52:31;54.20;;;35.38;;
27003;SDS011;14546;47.590;19.022;2022-11-15T05:55:00;54.70;;;35.65;;
27003;SDS011;14546;47.590;19.022;2022-11-15T05:57:27;52.33;;;34.67;;
27003;SDS011;14546;47.590;19.022;2022-11-15T05:59:53;55.45;;;36.63;;
27003;SDS011;14546;47.590;19.022;2022-11-15T06:02:19;50.53;;;34.67;;
27003;SDS011;14546;47.590;19.022;2022-11-15T06:04:45;54.47;;;34.95;;
27003;SDS011;14546;47.590;19.022;2022-11-15T06:07:11;53.35;;;36.47;;
27003;SDS011;14546;47.590;19.022;2022-11-15T06:09:37;58.30;;;35.33;;
27003;SDS011;14546;47.590;19.022;2022-11-15T06:12:03;59.28;;;36.92;;
27003;SDS011;14546;47.590;19.022;2022-11-15T06:14:29;56.72;;;35.20;;
27003;SDS011;14546;47.590;19.022;2022-11-15T06:16:56;50.63;;;35.72;;
27003;SDS011;14546;47.590;19.022;2022-11-15T06:19:21;57.25;;;35.65;;
27003;SDS011;14546;47.590;19.022;2022-11-15T06:21:47;51.20;;;34.67;;
27003;SDS011;14546;47.590;19.022;2022-11-15T06:24:13;58.10;;;35.35;;
27003;SDS011;14546;47.590;19.022;2022-11-15T06:26:39;52.25;;;36.45;;
27003;SDS011;14546;47.590;19.022;2022-11-15T06:29:05;61.42;;;35.95;;
27003;SDS011;14546;47.590;19.022;2022-11-15T06:31:32;53.67;;;34.20;;
27003;SDS011;14546;47.590;19.022;2022-11-15T06:33:58;54.83;;;36.50;;
27003;SDS011;14546;47.590;19.022;2022-11-15T06:36:24;55.28;;;36.63;;
27003;SDS011;14546;47.590;19.022;2022-11-15T06:38:51;52.83;;;35.33;;
27003;SDS011;14546;47.590;19.022;2022-11-15T06:41:17;52.90;;;36.33;;
27003;SDS011;14546;47.590;19.022;2022-11-15T06:43:43;54.20;;;35.28;;
27003;SDS011;14546;47.590;19.022;2022-11-15T06:46:09;53.83;;;36.45;;
27003;SDS011;14546;47.590;19.022;2022-11-15T06:48:35;55.15;;;35.40;;
27003;SDS011;14546;47.590;19.022;2022-11-15T06:51:01;53.90;;;35.13;;
27003;SDS011;14546;47.590;19.022;2022-11-15T06:53:27;51.28;;;33.25;;
27003;SDS011;14546;47.590;19.022;2022-11-15T06:55:56;50.58;;;33.78;;
27003;SDS011;14546;47.590;19.022;2022-11-15T06:58:23;58.17;;;34.88;;
27003;SDS011;14546;47.590;19.022;2022-11-15T07:00:49;49.35;;;33.17;;
27003;SDS011;14546;47.590;19.022;2022-11-15T07:03:15;51.00;;;34.60;;
27003;SDS011;14546;47.590;19.022;2022-11-15T07:05:41;53.53;;;35.33;;
27003;SDS011;14546;47.590;19.022;2022-11-15T07:08:07;52.85;;;34.55;;
27003;SDS011;14546;47.590;19.022;2022-11-15T07:10:34;52.65;;;36.20;;
27003;SDS011;14546;47.590;19.022;2022-11-15T07:13:00;54.78;;;35.75;;
27003;SDS011;14546;47.590;19.022;2022-11-15T07:15:26;56.75;;;36.75;;
27003;SDS011;14546;47.590;19.022;2022-11-15T07:17:52;57.42;;;37.67;;
27003;SDS011;14546;47.590;19.022;2022-11-15T07:20:18;57.60;;;38.10;;
27003;SDS011;14546;47.590;19.022;2022-11-15T07:22:44;55.80;;;36.53;;
27003;SDS011;14546;47.590;19.022;2022-11-15T07:25:10;61.80;;;37.45;;
27003;SDS011;14546;47.590;19.022;2022-11-15T07:27:36;56.90;;;37.20;;
27003;SDS011;14546;47.590;19.022;2022-11-15T07:30:03;56.65;;;37.58;;
27003;SDS011;14546;47.590;19.022;2022-11-15T07:32:29;57.63;;;35.83;;
27003;SDS011;14546;47.590;19.022;2022-11-15T07:34:55;52.83;;;37.38;;
27003;SDS011;14546;47.590;19.022;2022-11-15T07:37:21;57.53;;;37.05;;
27003;SDS011;14546;47.590;19.022;2022-11-15T07:39:47;56.50;;;36.97;;
27003;SDS011;14546;47.590;19.022;2022-11-15T07:42:13;58.67;;;38.45;;
27003;SDS011;14546;47.590;19.022;2022-11-15T07:44:58;57.33;;;37.95;;
27003;SDS011;14546;47.590;19.022;2022-11-15T07:47:24;57.85;;;38.80;;
27003;SDS011;14546;47.590;19.022;2022-11-15T07:49:50;56.85;;;38.00;;
27003;SDS011;14546;47.590;19.022;2022-11-15T07:52:17;66.72;;;38.20;;
27003;SDS011;14546;47.590;19.022;2022-11-15T07:54:43;61.17;;;39.00;;
27003;SDS011;14546;47.590;19.022;2022-11-15T07:57:09;63.88;;;41.13;;
27003;SDS011;14546;47.590;19.022;2022-11-15T07:59:35;60.90;;;39.60;;
27003;SDS011;14546;47.590;19.022;2022-11-15T08:02:01;62.03;;;39.55;;
27003;SDS011;14546;47.590;19.022;2022-11-15T08:04:27;62.00;;;38.67;;
27003;SDS011;14546;47.590;19.022;2022-11-15T08:06:53;57.97;;;38.35;;
27003;SDS011;14546;47.590;19.022;2022-11-15T08:09:19;61.08;;;39.88;;
27003;SDS011;14546;47.590;19.022;2022-11-15T08:11:45;61.78;;;38.33;;
27003;SDS011;14546;47.590;19.022;2022-11-15T08:14:11;61.08;;;39.13;;
27003;SDS011;14546;47.590;19.022;2022-11-15T08:16:37;59.30;;;39.08;;
27003;SDS011;14546;47.590;19.022;2022-11-15T08:19:03;55.33;;;38.80;;
27003;SDS011;14546;47.590;19.022;2022-11-15T08:21:29;59.95;;;38.75;;
27003;SDS011;14546;47.590;19.022;2022-11-15T08:23:55;60.55;;;40.15;;
27003;SDS011;14546;47.590;19.022;2022-11-15T08:26:21;60.20;;;40.17;;
27003;SDS011;14546;47.590;19.022;2022-11-15T08:28:49;63.53;;;40.72;;
27003;SDS011;14546;47.590;19.022;2022-11-15T08:31:16;69.32;;;40.55;;
27003;SDS011;14546;47.590;19.022;2022-11-15T08:33:43;58.67;;;39.10;;
27003;SDS011;14546;47.590;19.022;2022-11-15T08:36:13;58.10;;;40.22;;
27003;SDS011;14546;47.590;19.022;2022-11-15T08:38:40;54.80;;;39.35;;
27003;SDS011;14546;47.590;19.022;2022-11-15T08:41:06;62.50;;;41.28;;
27003;SDS011;14546;47.590;19.022;2022-11-15T08:43:32;57.00;;;39.78;;
27003;SDS011;14546;47.590;19.022;2022-11-15T08:45:58;59.78;;;39.28;;
27003;SDS011;14546;47.590;19.022;2022-11-15T08:48:24;62.08;;;40.30;;
27003;SDS011;14546;47.590;19.022;2022-11-15T08:50:54;59.88;;;38.65;;
27003;SDS011;14546;47.590;19.022;2022-11-15T08:53:20;57.88;;;39.97;;
27003;SDS011;14546;47.590;19.022;2022-11-15T08:55:46;60.35;;;40.08;;
27003;SDS011;14546;47.590;19.022;2022-11-15T08:58:12;64.68;;;40.47;;
27003;SDS011;14546;47.590;19.022;2022-11-15T09:00:38;54.75;;;38.35;;
27003;SDS011;14546;47.590;19.022;2022-11-15T09:03:05;61.50;;;40.45;;
27003;SDS011;14546;47.590;19.022;2022-11-15T09:05:31;61.45;;;39.78;;
27003;SDS011;14546;47.590;19.022;2022-11-15T09:07:57;56.28;;;39.28;;
27003;SDS011;14546;47.590;19.022;2022-11-15T09:10:23;57.53;;;37.03;;
27003;SDS011;14546;47.590;19.022;2022-11-15T09:12:49;59.22;;;38.38;;
27003;SDS011;14546;47.590;19.022;2022-11-15T09:15:16;57.10;;;38.38;;
27003;SDS011;14546;47.590;19.022;2022-11-15T09:17:42;54.50;;;37.15;;
27003;SDS011;14546;47.590;19.022;2022-11-15T09:20:08;55.15;;;38.25;;
27003;SDS011;14546;47.590;19.022;2022-11-15T09:22:34;60.03;;;39.17;;
27003;SDS011;14546;47.590;19.022;2022-11-15T09:25:01;76.80;;;40.00;;
27003;SDS011;14546;47.590;19.022;2022-11-15T09:27:28;59.30;;;40.70;;
27003;SDS011;14546;47.590;19.022;2022-11-15T09:29:54;60.15;;;38.42;;
27003;SDS011;14546;47.590;19.022;2022-11-15T09:32:20;64.60;;;39.15;;
27003;SDS011;14546;47.590;19.022;2022-11-15T09:34:48;59.80;;;39.40;;
27003;SDS011;14546;47.590;19.022;2022-11-15T09:37:14;59.33;;;37.90;;
27003;SDS011;14546;47.590;19.022;2022-11-15T09:39:40;58.10;;;38.40;;
27003;SDS011;14546;47.590;19.022;2022-11-15T09:49:43;54.10;;;37.28;;
27003;SDS011;14546;47.590;19.022;2022-11-15T09:52:10;51.20;;;36.75;;
27003;SDS011;14546;47.590;19.022;2022-11-15T09:54:41;54.55;;;36.92;;
27003;SDS011;14546;47.590;19.022;2022-11-15T10:04:36;54.38;;;35.30;;
27003;SDS011;14546;47.590;19.022;2022-11-15T10:09:30;49.90;;;34.92;;
27003;SDS011;14546;47.590;19.022;2022-11-15T10:11:59;57.38;;;38.45;;
27003;SDS011;14546;47.590;19.022;2022-11-15T10:14:26;56.60;;;38.38;;
27003;SDS011;14546;47.590;19.022;2022-11-15T10:16:57;54.58;;;38.35;;
27003;SDS011;14546;47.590;19.022;2022-11-15T10:22:23;53.45;;;39.05;;
27003;SDS011;14546;47.590;19.022;2022-11-15T10:24:52;49.83;;;36.60;;
27003;SDS011;14546;47.590;19.022;2022-11-15T10:29:50;57.97;;;37.95;;
27003;SDS011;14546;47.590;19.022;2022-11-15T10:32:20;58.00;;;37.97;;
27003;SDS011;14546;47.590;19.022;2022-11-15T10:34:47;57.90;;;39.35;;
27003;SDS011;14546;47.590;19.022;2022-11-15T10:37:14;55.10;;;39.03;;
27003;SDS011;14546;47.590;19.022;2022-11-15T10:39:40;54.22;;;38.00;;
27003;SDS011;14546;47.590;19.022;2022-11-15T10:42:25;55.90;;;38.55;;
27003;SDS011;14546;47.590;19.022;2022-11-15T10:44:51;50.28;;;35.72;;
27003;SDS011;14546;47.590;19.022;2022-11-15T10:47:22;53.28;;;36.55;;
27003;SDS011;14546;47.590;19.022;2022-11-15T10:49:56;48.28;;;35.47;;
27003;SDS011;14546;47.590;19.022;2022-11-15T10:52:22;49.55;;;35.20;;
27003;SDS011;14546;47.590;19.022;2022-11-15T10:55:00;55.67;;;37.35;;
27003;SDS011;14546;47.590;19.022;2022-11-15T10:57:31;51.88;;;36.85;;
27003;SDS011;14546;47.590;19.022;2022-11-15T11:04:56;54.80;;;39.58;;
27003;SDS011;14546;47.590;19.022;2022-11-15T11:07:27;62.15;;;41.80;;
27003;SDS011;14546;47.590;19.022;2022-11-15T11:13:15;56.10;;;39.17;;
27003;SDS011;14546;47.590;19.022;2022-11-15T11:15:47;61.03;;;39.90;;
27003;SDS011;14546;47.590;19.022;2022-11-15T11:18:32;57.13;;;40.58;;
27003;SDS011;14546;47.590;19.022;2022-11-15T11:21:02;59.38;;;40.10;;
27003;SDS011;14546;47.590;19.022;2022-11-15T11:31:17;52.55;;;37.75;;
27003;SDS011;14546;47.590;19.022;2022-11-15T11:39:24;59.70;;;38.88;;
27003;SDS011;14546;47.590;19.022;2022-11-15T11:44:30;55.05;;;39.20;;
27003;SDS011;14546;47.590;19.022;2022-11-15T11:49:29;58.55;;;39.13;;
27003;SDS011;14546;47.590;19.022;2022-11-15T11:52:05;57.92;;;41.60;;
27003;SDS011;14546;47.590;19.022;2022-11-15T11:57:02;65.43;;;43.70;;
27003;SDS011;14546;47.590;19.022;2022-11-15T11:59:32;62.05;;;43.17;;
27003;SDS011;14546;47.590;19.022;2022-11-15T12:02:07;67.78;;;45.38;;
27003;SDS011;14546;47.590;19.022;2022-11-15T12:04:36;60.42;;;41.60;;
27003;SDS011;14546;47.590;19.022;2022-11-15T12:09:44;63.47;;;44.38;;
27003;SDS011;14546;47.590;19.022;2022-11-15T12:12:17;68.40;;;43.80;;
27003;SDS011;14546;47.590;19.022;2022-11-15T12:17:17;66.03;;;43.30;;
27003;SDS011;14546;47.590;19.022;2022-11-15T12:19:46;66.80;;;44.33;;
27003;SDS011;14546;47.590;19.022;2022-11-15T12:22:22;67.47;;;44.72;;
27003;SDS011;14546;47.590;19.022;2022-11-15T12:24:54;66.13;;;44.85;;
27003;SDS011;14546;47.590;19.022;2022-11-15T12:27:27;65.20;;;44.45;;
27003;SDS011;14546;47.590;19.022;2022-11-15T12:29:57;67.72;;;44.72;;
27003;SDS011;14546;47.590;19.022;2022-11-15T12:32:25;73.90;;;46.60;;
27003;SDS011;14546;47.590;19.022;2022-11-15T12:34:52;75.60;;;46.15;;
27003;SDS011;14546;47.590;19.022;2022-11-15T12:45:01;74.63;;;46.00;;
27003;SDS011;14546;47.590;19.022;2022-11-15T12:47:27;67.63;;;46.63;;
27003;SDS011;14546;47.590;19.022;2022-11-15T12:49:53;75.32;;;44.22;;
27003;SDS011;14546;47.590;19.022;2022-11-15T12:52:19;70.68;;;46.58;;
27003;SDS011;14546;47.590;19.022;2022-11-15T12:54:53;68.65;;;46.85;;
27003;SDS011;14546;47.590;19.022;2022-11-15T13:02:43;75.05;;;47.97;;
27003;SDS011;14546;47.590;19.022;2022-11-15T13:22:40;85.95;;;52.47;;
27003;SDS011;14546;47.590;19.022;2022-11-15T13:25:17;76.97;;;52.00;;
27003;SDS011;14546;47.590;19.022;2022-11-15T13:27:45;84.93;;;53.85;;
27003;SDS011;14546;47.590;19.022;2022-11-15T13:30:22;83.05;;;54.30;;
27003;SDS011;14546;47.590;19.022;2022-11-15T13:32:48;81.85;;;51.35;;
27003;SDS011;14546;47.590;19.022;2022-11-15T13:35:28;84.32;;;53.60;;
27003;SDS011;14546;47.590;19.022;2022-11-15T13:37:55;88.57;;;52.88;;
27003;SDS011;14546;47.590;19.022;2022-11-15T13:40:23;76.13;;;50.58;;
27003;SDS011;14546;47.590;19.022;2022-11-15T13:42:50;80.80;;;52.13;;
27003;SDS011;14546;47.590;19.022;2022-11-15T13:45:16;78.47;;;51.17;;
27003;SDS011;14546;47.590;19.022;2022-11-15T13:47:43;78.85;;;50.17;;
27003;SDS011;14546;47.590;19.022;2022-11-15T13:50:12;80.88;;;50.80;;
27003;SDS011;14546;47.590;19.022;2022-11-15T13:52:39;75.55;;;49.63;;
27003;SDS011;14546;47.590;19.022;2022-11-15T13:55:18;80.15;;;50.03;;
27003;SDS011;14546;47.590;19.022;2022-11-15T13:58:08;81.75;;;49.92;;
27003;SDS011;14546;47.590;19.022;2022-11-15T14:00:37;78.85;;;49.28;;
27003;SDS011;14546;47.590;19.022;2022-11-15T14:03:10;78.68;;;51.55;;
27003;SDS011;14546;47.590;19.022;2022-11-15T14:05:39;79.15;;;48.88;;
27003;SDS011;14546;47.590;19.022;2022-11-15T14:10:47;80.20;;;51.60;;
27003;SDS011;14546;47.590;19.022;2022-11-15T14:13:27;84.05;;;50.15;;
27003;SDS011;14546;47.590;19.022;2022-11-15T14:15:53;79.80;;;50.30;;
27003;SDS011;14546;47.590;19.022;2022-11-15T14:21:23;77.45;;;49.03;;
27003;SDS011;14546;47.590;19.022;2022-11-15T14:23:49;81.55;;;50.05;;
27003;SDS011;14546;47.590;19.022;2022-11-15T14:26:29;75.05;;;48.20;;
27003;SDS011;14546;47.590;19.022;2022-11-15T14:28:55;80.18;;;50.00;;
27003;SDS011;14546;47.590;19.022;2022-11-15T14:31:21;79.32;;;48.78;;
27003;SDS011;14546;47.590;19.022;2022-11-15T14:33:48;76.25;;;47.53;;
27003;SDS011;14546;47.590;19.022;2022-11-15T14:36:18;75.28;;;47.47;;
27003;SDS011;14546;47.590;19.022;2022-11-15T14:38:45;70.65;;;45.63;;
27003;SDS011;14546;47.590;19.022;2022-11-15T14:41:21;66.25;;;45.22;;
27003;SDS011;14546;47.590;19.022;2022-11-15T14:43:47;69.88;;;44.83;;
27003;SDS011;14546;47.590;19.022;2022-11-15T14:46:13;69.30;;;44.25;;
27003;SDS011;14546;47.590;19.022;2022-11-15T14:48:39;68.90;;;42.90;;
27003;SDS011;14546;47.590;19.022;2022-11-15T14:51:14;67.55;;;44.28;;
27003;SDS011;14546;47.590;19.022;2022-11-15T14:53:41;65.53;;;43.85;;
27003;SDS011;14546;47.590;19.022;2022-11-15T14:56:07;67.50;;;43.58;;
27003;SDS011;14546;47.590;19.022;2022-11-15T14:58:33;63.58;;;43.17;;
27003;SDS011;14546;47.590;19.022;2022-11-15T15:00:59;64.50;;;42.35;;
27003;SDS011;14546;47.590;19.022;2022-11-15T15:03:25;64.82;;;41.25;;
27003;SDS011;14546;47.590;19.022;2022-11-15T15:05:51;59.30;;;38.63;;
27003;SDS011;14546;47.590;19.022;2022-11-15T15:08:17;57.45;;;39.78;;
27003;SDS011;14546;47.590;19.022;2022-11-15T15:10:43;58.20;;;38.67;;
27003;SDS011;14546;47.590;19.022;2022-11-15T15:15:42;60.10;;;39.47;;
27003;SDS011;14546;47.590;19.022;2022-11-15T15:18:08;54.65;;;38.15;;
27003;SDS011;14546;47.590;19.022;2022-11-15T15:20:34;58.50;;;39.63;;
27003;SDS011;14546;47.590;19.022;2022-11-15T15:23:00;57.15;;;37.35;;
27003;SDS011;14546;47.590;19.022;2022-11-15T15:25:33;57.92;;;39.15;;
27003;SDS011;14546;47.590;19.022;2022-11-15T15:28:00;60.58;;;38.60;;
27003;SDS011;14546;47.590;19.022;2022-11-15T15:30:27;60.80;;;38.90;;
27003;SDS011;14546;47.590;19.022;2022-11-15T15:32:53;58.65;;;38.95;;
27003;SDS011;14546;47.590;19.022;2022-11-15T15:35:19;65.38;;;39.67;;
27003;SDS011;14546;47.590;19.022;2022-11-15T15:37:46;61.78;;;39.22;;
27003;SDS011;14546;47.590;19.022;2022-11-15T15:42:41;56.92;;;37.03;;
27003;SDS011;14546;47.590;19.022;2022-11-15T15:45:07;59.30;;;38.72;;
27003;SDS011;14546;47.590;19.022;2022-11-15T15:47:34;58.13;;;37.58;;
27003;SDS011;14546;47.590;19.022;2022-11-15T15:50:00;60.80;;;39.92;;
27003;SDS011;14546;47.590;19.022;2022-11-15T15:52:26;59.78;;;39.20;;
27003;SDS011;14546;47.590;19.022;2022-11-15T15:54:52;70.25;;;42.03;;
27003;SDS011;14546;47.590;19.022;2022-11-15T15:57:18;64.53;;;41.67;;
27003;SDS011;14546;47.590;19.022;2022-11-15T15:59:44;69.50;;;43.17;;
27003;SDS011;14546;47.590;19.022;2022-11-15T16:02:13;70.72;;;42.58;;
27003;SDS011;14546;47.590;19.022;2022-11-15T16:04:39;67.90;;;40.80;;
27003;SDS011;14546;47.590;19.022;2022-11-15T16:07:05;64.68;;;40.70;;
27003;SDS011;14546;47.590;19.022;2022-11-15T16:09:32;60.00;;;39.88;;
27003;SDS011;14546;47.590;19.022;2022-11-15T16:12:16;60.72;;;39.40;;
27003;SDS011;14546;47.590;19.022;2022-11-15T16:14:42;63.38;;;37.80;;
27003;SDS011;14546;47.590;19.022;2022-11-15T16:17:10;59.53;;;37.78;;
27003;SDS011;14546;47.590;19.022;2022-11-15T16:19:40;60.78;;;38.25;;
27003;SDS011;14546;47.590;19.022;2022-11-15T16:22:06;62.10;;;38.72;;